Warner, New Hampshire
Current Conditions -  °F | °C
As of 3:51 AM on Tuesday 21 Oct 2014 (Local Time) from KCON Reporting Station
Overcast Overcast  
Wind Chill: 44°   Ceiling: 7000
Heat Index: 44°   Visibility: 10mi
Dew Point: 43°   Wind: 0mph
Humidity: 96%   Direction: NA
Pressure: 29.98"   Gusts: NA
Location:  43.28°N, 71.82°W
Report Text: KCON 210751Z AUTO 00000KT 10SM SCT055 BKN070 OVC090 07/06 A2998 RMK AO2 SLP154 T00670061
Loading
Personal Weather Stations






























Interactive Weather Map
Tropical Storm Tracking
New forecast layout! Learn more

10-Day Weather Forecast

Advertisements
Track Severe Weather on mobile